Time,TemperatureF,DewpointF,PressureIn,WindDirection,WindDirectionDegrees,WindSpeedMPH,WindSpeedGustMPH,Humidity,HourlyPrecipIn,Conditions,Clouds,dailyrainin,SoftwareType,DateUTC
2013-05-17 00:01:00,54.0,45.0,29.85,SW,236,17.0,-999.0,71,-99.99,,,-99.99,,2013-05-17 06:01:00,
2013-05-17 00:11:00,54.0,45.0,29.85,SW,236,17.0,-999.0,71,-99.99,,,-99.99,,2013-05-17 06:11:00,
2013-05-17 00:21:00,52.0,45.0,29.80,NE,38,7.0,-999.0,76,-99.99,,,-99.99,,2013-05-17 06:21:00,
2013-05-17 00:32:00,52.0,46.0,29.80,NE,36,6.0,-999.0,79,-99.99,,,-99.99,,2013-05-17 06:32:00,
2013-05-17 00:42:00,52.0,46.0,29.80,NE,36,6.0,-999.0,79,-99.99,,,-99.99,,2013-05-17 06:42:00,
2013-05-17 00:52:00,52.0,46.0,29.81,NW,326,4.0,-999.0,81,-99.99,,,-99.99,,2013-05-17 06:52:00,
2013-05-17 01:02:00,52.0,46.0,29.81,North,360,3.0,-999.0,81,-99.99,,,-99.99,,2013-05-17 07:02:00,
2013-05-17 01:11:00,52.0,46.0,29.81,North,360,3.0,-999.0,81,-99.99,,,-99.99,,2013-05-17 07:11:00,
2013-05-17 01:21:00,52.0,46.0,29.81,NNW,344,4.0,-999.0,81,-99.99,,,-99.99,,2013-05-17 07:21:00,
2013-05-17 01:32:00,51.0,46.0,29.81,North,355,5.0,-999.0,82,-99.99,,,-99.99,,2013-05-17 07:32:00,
2013-05-17 01:43:00,51.0,46.0,29.81,North,355,5.0,-999.0,82,-99.99,,,-99.99,,2013-05-17 07:43:00,
2013-05-17 01:53:00,51.0,47.0,29.81,NNE,28,6.0,-999.0,85,-99.99,,,-99.99,,2013-05-17 07:53:00,
2013-05-17 02:02:00,51.0,47.0,29.82,NE,38,7.0,-999.0,87,-99.99,,,-99.99,,2013-05-17 08:02:00,
2013-05-17 02:12:00,51.0,47.0,29.82,NE,38,7.0,-999.0,87,-99.99,,,-99.99,,2013-05-17 08:12:00,
2013-05-17 02:22:00,51.0,48.0,29.82,NNE,28,7.0,-999.0,88,-99.99,,,-99.99,,2013-05-17 08:22:00,
2013-05-17 02:33:00,51.0,48.0,29.82,NE,45,6.0,-999.0,89,-99.99,,,-99.99,,2013-05-17 08:33:00,
2013-05-17 02:42:00,51.0,48.0,29.82,NE,45,6.0,-999.0,89,-99.99,,,-99.99,,2013-05-17 08:42:00,
2013-05-17 02:52:00,50.0,47.0,29.83,NE,52,4.0,-999.0,90,-99.99,,,-99.99,,2013-05-17 08:52:00,
2013-05-17 03:02:00,51.0,48.0,29.83,SSE,155,0.0,-999.0,89,-99.99,,,-99.99,,2013-05-17 09:02:00,
2013-05-17 03:12:00,51.0,48.0,29.83,SSE,155,0.0,-999.0,89,-99.99,,,-99.99,,2013-05-17 09:12:00,
2013-05-17 03:22:00,51.0,48.0,29.83,SSE,155,0.0,-999.0,88,-99.99,,,-99.99,,2013-05-17 09:22:00,
2013-05-17 03:33:00,51.0,48.0,29.84,WSW,246,0.0,-999.0,89,-99.99,,,-99.99,,2013-05-17 09:33:00,
2013-05-17 03:42:00,51.0,48.0,29.84,WSW,246,0.0,-999.0,89,-99.99,,,-99.99,,2013-05-17 09:42:00,
2013-05-17 03:53:00,50.0,47.0,29.83,West,260,0.0,-999.0,89,-99.99,,,-99.99,,2013-05-17 09:53:00,
2013-05-17 04:03:00,50.0,47.0,29.84,West,260,0.0,-999.0,89,-99.99,,,-99.99,,2013-05-17 10:03:00,
2013-05-17 04:12:00,50.0,47.0,29.84,West,260,0.0,-999.0,89,-99.99,,,-99.99,,2013-05-17 10:12:00,
2013-05-17 04:23:00,50.0,47.0,29.83,West,260,0.0,-999.0,88,-99.99,,,-99.99,,2013-05-17 10:23:00,
2013-05-17 04:32:00,50.0,47.0,29.83,West,260,0.0,-999.0,88,-99.99,,,-99.99,,2013-05-17 10:32:00,
2013-05-17 04:42:00,50.0,47.0,29.83,West,260,0.0,-999.0,88,-99.99,,,-99.99,,2013-05-17 10:42:00,
2013-05-17 04:54:00,50.0,46.0,29.83,West,260,0.0,-999.0,87,-99.99,,,-99.99,,2013-05-17 10:54:00,
2013-05-17 05:02:00,50.0,47.0,29.83,West,260,0.0,-999.0,88,-99.99,,,-99.99,,2013-05-17 11:02:00,
2013-05-17 05:12:00,50.0,47.0,29.83,West,260,0.0,-999.0,88,-99.99,,,-99.99,,2013-05-17 11:12:00,
2013-05-17 05:22:00,49.0,46.0,29.83,NW,311,2.0,-999.0,88,-99.99,,,-99.99,,2013-05-17 11:22:00,
2013-05-17 05:33:00,49.0,46.0,29.83,NNW,343,3.0,-999.0,89,-99.99,,,-99.99,,2013-05-17 11:33:00,
2013-05-17 05:42:00,49.0,46.0,29.83,NNW,343,3.0,-999.0,89,-99.99,,,-99.99,,2013-05-17 11:42:00,
2013-05-17 05:53:00,48.0,45.0,29.83,NNW,347,2.0,-999.0,90,-99.99,,,-99.99,,2013-05-17 11:53:00,
2013-05-17 06:02:00,48.0,45.0,29.83,North,360,3.0,-999.0,90,-99.99,,,-99.99,,2013-05-17 12:02:00,
2013-05-17 06:12:00,48.0,45.0,29.83,North,360,3.0,-999.0,90,-99.99,,,-99.99,,2013-05-17 12:12:00,
2013-05-17 06:23:00,47.0,44.0,29.83,North,360,2.0,-999.0,90,-99.99,,,-99.99,,2013-05-17 12:23:00,
2013-05-17 06:32:00,47.0,45.0,29.83,North,360,2.0,-999.0,91,-99.99,,,-99.99,,2013-05-17 12:32:00,
2013-05-17 06:42:00,47.0,45.0,29.83,North,360,2.0,-999.0,91,-99.99,,,-99.99,,2013-05-17 12:42:00,
2013-05-17 06:53:00,47.0,45.0,29.84,North,360,2.0,-999.0,92,-99.99,,,-99.99,,2013-05-17 12:53:00,
2013-05-17 07:03:00,48.0,46.0,29.84,North,360,3.0,-999.0,92,-99.99,,,-99.99,,2013-05-17 13:03:00,
2013-05-17 07:12:00,48.0,46.0,29.84,North,360,3.0,-999.0,92,-99.99,,,-99.99,,2013-05-17 13:12:00,
2013-05-17 07:23:00,49.0,46.0,29.83,North,5,3.0,-999.0,91,-99.99,,,-99.99,,2013-05-17 13:23:00,
2013-05-17 07:33:00,50.0,47.0,29.84,NNW,347,3.0,-999.0,91,-99.99,,,-99.99,,2013-05-17 13:33:00,
2013-05-17 07:42:00,50.0,47.0,29.84,NNW,347,3.0,-999.0,91,-99.99,,,-99.99,,2013-05-17 13:42:00,
2013-05-17 07:52:00,50.0,47.0,29.84,NNW,345,4.0,-999.0,90,-99.99,,,-99.99,,2013-05-17 13:52:00,
2013-05-17 08:01:00,50.0,47.0,29.84,North,355,4.0,-999.0,88,-99.99,,,-99.99,,2013-05-17 14:01:00,
2013-05-17 08:12:00,50.0,47.0,29.84,North,355,4.0,-999.0,88,-99.99,,,-99.99,,2013-05-17 14:12:00,
2013-05-17 08:22:00,51.0,48.0,29.84,North,351,3.0,-999.0,88,-99.99,,,-99.99,,2013-05-17 14:22:00,
2013-05-17 08:34:00,52.0,49.0,29.84,North,360,4.0,-999.0,88,-99.99,,,-99.99,,2013-05-17 14:34:00,
2013-05-17 08:42:00,52.0,49.0,29.84,North,360,4.0,-999.0,88,-99.99,,,-99.99,,2013-05-17 14:42:00,
2013-05-17 08:53:00,54.0,50.0,29.83,NE,51,4.0,-999.0,86,-99.99,,,-99.99,,2013-05-17 14:53:00,
2013-05-17 09:03:00,54.0,50.0,29.83,NE,51,4.0,-999.0,86,-99.99,,,-99.99,,2013-05-17 15:03:00,
2013-05-17 09:13:00,54.0,50.0,29.83,NE,51,4.0,-999.0,86,-99.99,,,-99.99,,2013-05-17 15:13:00,
2013-05-17 09:25:00,57.0,51.0,29.82,ENE,68,2.0,-999.0,79,-99.99,,,-99.99,,2013-05-17 15:25:00,
2013-05-17 09:37:00,57.0,50.0,29.82,SE,127,1.0,-999.0,77,-99.99,,,-99.99,,2013-05-17 15:37:00,
2013-05-17 09:47:00,57.0,50.0,29.82,SE,127,1.0,-999.0,77,-99.99,,,-99.99,,2013-05-17 15:47:00,
2013-05-17 09:57:00,56.0,50.0,29.82,SSE,162,2.0,-999.0,80,-99.99,,,-99.99,,2013-05-17 15:57:00,
2013-05-17 10:07:00,57.0,51.0,29.82,SSW,211,1.0,-999.0,80,-99.99,,,-99.99,,2013-05-17 16:07:00,
2013-05-17 10:13:00,57.0,51.0,29.82,SSW,211,1.0,-999.0,80,-99.99,,,-99.99,,2013-05-17 16:13:00,
2013-05-17 10:26:00,58.0,50.0,29.82,SSW,202,0.0,-999.0,76,-99.99,,,-99.99,,2013-05-17 16:26:00,
2013-05-17 10:37:00,59.0,49.0,29.81,South,189,1.0,-999.0,70,-99.99,,,-99.99,,2013-05-17 16:37:00,
2013-05-17 10:49:00,59.0,49.0,29.81,South,189,1.0,-999.0,70,-99.99,,,-99.99,,2013-05-17 16:49:00,
2013-05-17 10:56:00,61.0,49.0,29.81,NNE,28,0.0,-999.0,65,-99.99,,,-99.99,,2013-05-17 16:56:00,
2013-05-17 11:07:00,62.0,48.0,29.80,SSE,166,0.0,-999.0,61,-99.99,,,-99.99,,2013-05-17 17:07:00,
2013-05-17 11:18:00,62.0,48.0,29.80,SSE,166,0.0,-999.0,61,-99.99,,,-99.99,,2013-05-17 17:18:00,
2013-05-17 11:29:00,62.0,48.0,29.80,SSE,166,0.0,-999.0,61,-99.99,,,-99.99,,2013-05-17 17:29:00,
2013-05-17 11:40:00,64.0,-99.9,29.80,ESE,102,1.0,-999.0,57,-99.99,,,-99.99,,2013-05-17 17:40:00,
2013-05-17 11:48:00,64.0,48.0,29.80,ESE,102,1.0,-999.0,57,-99.99,,,-99.99,,2013-05-17 17:48:00,
2013-05-17 12:00:00,63.0,46.0,29.80,ESE,121,3.0,-999.0,54,-99.99,,,-99.99,,2013-05-17 18:00:00,
2013-05-17 12:08:00,64.0,47.0,29.79,SSW,213,1.0,-999.0,55,-99.99,,,-99.99,,2013-05-17 18:08:00,
2013-05-17 12:20:00,64.0,47.0,29.79,SSW,213,1.0,-999.0,55,-99.99,,,-99.99,,2013-05-17 18:20:00,
2013-05-17 12:30:00,66.0,48.0,29.78,East,97,3.0,-999.0,52,-99.99,,,-99.99,,2013-05-17 18:30:00,
2013-05-17 12:40:00,66.0,47.0,29.77,ENE,77,3.0,-999.0,51,-99.99,,,-99.99,,2013-05-17 18:40:00,
2013-05-17 12:50:00,-999.0,-99.9,29.77,ENE,77,3.0,-999.0,51,-99.99,,,-99.99,,2013-05-17 18:50:00,
2013-05-17 13:00:00,68.0,48.0,29.76,ESE,110,3.0,-999.0,48,-99.99,,,-99.99,,2013-05-17 19:00:00,
2013-05-17 13:10:00,70.0,48.0,29.75,SE,144,2.0,-999.0,46,-99.99,,,-99.99,,2013-05-17 19:10:00,
2013-05-17 13:20:00,70.0,48.0,29.75,SE,144,2.0,-999.0,46,-99.99,,,-99.99,,2013-05-17 19:20:00,
2013-05-17 13:30:00,70.0,47.0,29.74,SE,136,4.0,-999.0,44,-99.99,,,-99.99,,2013-05-17 19:30:00,
2013-05-17 13:40:00,71.0,46.0,29.73,ESE,103,4.0,-999.0,41,-99.99,,,-99.99,,2013-05-17 19:40:00,
2013-05-17 13:50:00,71.0,46.0,29.73,ESE,103,4.0,-999.0,41,-99.99,,,-99.99,,2013-05-17 19:50:00,
2013-05-17 14:00:00,72.0,-99.9,29.72,South,186,9.0,-999.0,37,-99.99,,,-99.99,,2013-05-17 20:00:00,
2013-05-17 14:09:00,74.0,44.0,29.71,SW,219,8.0,-999.0,34,-99.99,,,-99.99,,2013-05-17 20:09:00,
2013-05-17 14:20:00,74.0,44.0,29.71,SW,219,8.0,-999.0,34,-99.99,,,-99.99,,2013-05-17 20:20:00,
2013-05-17 14:30:00,74.0,34.0,29.70,SW,217,8.0,-999.0,23,-99.99,,,-99.99,,2013-05-17 20:30:00,
2013-05-17 14:40:00,75.0,31.0,29.70,SSW,209,17.0,-999.0,20,-99.99,,,-99.99,,2013-05-17 20:40:00,
2013-05-17 14:49:00,75.0,31.0,29.70,SSW,209,17.0,-999.0,20,-99.99,,,-99.99,,2013-05-17 20:49:00,
2013-05-17 14:58:00,76.0,29.0,29.70,SSW,194,17.0,-999.0,18,-99.99,,,-99.99,,2013-05-17 20:58:00,
2013-05-17 15:07:00,75.0,26.0,29.70,SSW,199,17.0,-999.0,16,-99.99,,,-99.99,,2013-05-17 21:07:00,
2013-05-17 15:25:00,72.0,33.0,29.71,WSW,254,23.0,-999.0,24,-99.99,,,-99.99,,2013-05-17 21:25:00,
2013-05-17 15:39:00,68.0,35.0,29.72,West,265,29.0,-999.0,29,-99.99,,,-99.99,,2013-05-17 21:39:00,
2013-05-17 15:49:00,68.0,35.0,29.72,West,265,29.0,-999.0,29,-99.99,,,-99.99,,2013-05-17 21:49:00,
2013-05-17 15:58:00,69.0,35.0,29.73,SW,227,29.0,-999.0,29,-99.99,,,-99.99,,2013-05-17 21:58:00,
2013-05-17 16:06:00,67.0,36.0,29.71,SW,231,34.0,-999.0,32,-99.99,,,-99.99,,2013-05-17 22:06:00,
2013-05-17 16:16:00,67.0,36.0,29.71,SW,231,34.0,-999.0,32,-99.99,,,-99.99,,2013-05-17 22:16:00,
2013-05-17 16:28:00,64.0,39.0,29.72,WSW,240,37.0,-999.0,39,-99.99,,,-99.99,,2013-05-17 22:28:00,
2013-05-17 16:37:00,64.0,38.0,29.71,West,265,29.0,-999.0,38,-99.99,,,-99.99,,2013-05-17 22:37:00,
2013-05-17 16:47:00,64.0,38.0,29.71,West,265,29.0,-999.0,38,-99.99,,,-99.99,,2013-05-17 22:47:00,
2013-05-17 16:55:00,65.0,38.0,29.73,West,265,27.0,-999.0,37,-99.99,,,-99.99,,2013-05-17 22:55:00,
2013-05-17 17:04:00,64.0,39.0,29.73,WSW,246,25.0,-999.0,39,-99.99,,,-99.99,,2013-05-17 23:04:00,
2013-05-17 17:12:00,64.0,39.0,29.73,WSW,246,25.0,-999.0,39,-99.99,,,-99.99,,2013-05-17 23:12:00,
2013-05-17 17:23:00,66.0,38.0,29.74,WSW,254,19.0,-999.0,35,-99.99,,,-99.99,,2013-05-17 23:23:00,
2013-05-17 17:37:00,66.0,36.0,29.75,WSW,242,19.0,-999.0,33,-99.99,,,-99.99,,2013-05-17 23:37:00,
2013-05-17 17:47:00,66.0,36.0,29.75,WSW,242,19.0,-999.0,33,-99.99,,,-99.99,,2013-05-17 23:47:00,
2013-05-17 17:54:00,66.0,37.0,29.77,West,280,17.0,-999.0,34,-99.99,,,-99.99,,2013-05-17 23:54:00,
2013-05-17 18:02:00,65.0,36.0,29.77,West,280,19.0,-999.0,34,-99.99,,,-99.99,,2013-05-18 00:02:00,
2013-05-17 18:13:00,65.0,36.0,29.77,West,280,19.0,-999.0,34,-99.99,,,-99.99,,2013-05-18 00:13:00,
2013-05-17 18:21:00,66.0,35.0,29.78,WNW,298,21.0,-999.0,32,-99.99,,,-99.99,,2013-05-18 00:21:00,
2013-05-17 18:33:00,65.0,37.0,29.78,WNW,296,20.0,-999.0,36,-99.99,,,-99.99,,2013-05-18 00:33:00,
2013-05-17 18:44:00,65.0,37.0,29.78,WNW,296,20.0,-999.0,36,-99.99,,,-99.99,,2013-05-18 00:44:00,
2013-05-17 18:54:00,63.0,38.0,29.80,NW,307,18.0,-999.0,39,-99.99,,,-99.99,,2013-05-18 00:54:00,
2013-05-17 19:02:00,62.0,38.0,29.79,WNW,294,17.0,-999.0,41,-99.99,,,-99.99,,2013-05-18 01:02:00,
2013-05-17 19:13:00,62.0,38.0,29.79,WNW,294,17.0,-999.0,41,-99.99,,,-99.99,,2013-05-18 01:13:00,
2013-05-17 19:24:00,61.0,37.0,29.78,West,281,19.0,-999.0,41,-99.99,,,-99.99,,2013-05-18 01:24:00,
2013-05-17 19:31:00,61.0,36.0,29.80,NW,304,14.0,-999.0,40,-99.99,,,-99.99,,2013-05-18 01:31:00,
2013-05-17 19:42:00,61.0,36.0,29.80,NW,304,14.0,-999.0,40,-99.99,,,-99.99,,2013-05-18 01:42:00,
2013-05-17 19:52:00,61.0,36.0,29.83,WNW,296,8.0,-999.0,40,-99.99,,,-99.99,,2013-05-18 01:52:00,
2013-05-17 20:02:00,61.0,38.0,29.83,NW,311,3.0,-999.0,42,-99.99,,,-99.99,,2013-05-18 02:02:00,
2013-05-17 20:11:00,61.0,38.0,29.83,NW,311,3.0,-999.0,42,-99.99,,,-99.99,,2013-05-18 02:11:00,
2013-05-17 20:22:00,60.0,37.0,29.84,NNW,347,3.0,-999.0,42,-99.99,,,-99.99,,2013-05-18 02:22:00,
2013-05-17 20:31:00,59.0,43.0,29.85,NNW,344,3.0,-999.0,56,-99.99,,,-99.99,,2013-05-18 02:31:00,
2013-05-17 20:42:00,59.0,43.0,29.85,NNW,344,3.0,-999.0,56,-99.99,,,-99.99,,2013-05-18 02:42:00,
2013-05-17 20:53:00,58.0,44.0,29.85,NE,44,3.0,-999.0,59,-99.99,,,-99.99,,2013-05-18 02:53:00,
2013-05-17 21:02:00,56.0,45.0,29.85,NE,51,6.0,-999.0,66,-99.99,,,-99.99,,2013-05-18 03:02:00,
2013-05-17 21:11:00,56.0,45.0,29.85,NE,51,6.0,-999.0,66,-99.99,,,-99.99,,2013-05-18 03:11:00,
2013-05-17 21:22:00,55.0,44.0,29.84,NE,55,7.0,-999.0,67,-99.99,,,-99.99,,2013-05-18 03:22:00,
2013-05-17 21:32:00,55.0,45.0,29.84,NE,40,5.0,-999.0,68,-99.99,,,-99.99,,2013-05-18 03:32:00,
2013-05-17 21:43:00,55.0,45.0,29.84,NE,40,5.0,-999.0,68,-99.99,,,-99.99,,2013-05-18 03:43:00,
2013-05-17 21:53:00,54.0,43.0,29.85,NE,36,1.0,-999.0,67,-99.99,,,-99.99,,2013-05-18 03:53:00,
2013-05-17 22:02:00,54.0,43.0,29.85,ENE,65,3.0,-999.0,67,-99.99,,,-99.99,,2013-05-18 04:02:00,
2013-05-17 22:12:00,54.0,43.0,29.85,ENE,65,3.0,-999.0,67,-99.99,,,-99.99,,2013-05-18 04:12:00,
2013-05-17 22:22:00,55.0,43.0,29.85,NE,54,0.0,-999.0,63,-99.99,,,-99.99,,2013-05-18 04:22:00,
2013-05-17 22:32:00,55.0,42.0,29.85,NE,54,0.0,-999.0,62,-99.99,,,-99.99,,2013-05-18 04:32:00,
2013-05-17 22:42:00,55.0,42.0,29.85,NE,54,0.0,-999.0,62,-99.99,,,-99.99,,2013-05-18 04:42:00,
2013-05-17 22:52:00,55.0,42.0,29.85,NE,54,0.0,-999.0,62,-99.99,,,-99.99,,2013-05-18 04:52:00,
2013-05-17 23:02:00,54.0,43.0,29.84,ENE,70,1.0,-999.0,66,-99.99,,,-99.99,,2013-05-18 05:02:00,
2013-05-17 23:12:00,54.0,43.0,29.84,ENE,70,1.0,-999.0,66,-99.99,,,-99.99,,2013-05-18 05:12:00,
2013-05-17 23:21:00,54.0,44.0,29.84,East,88,3.0,-999.0,68,-99.99,,,-99.99,,2013-05-18 05:21:00,
2013-05-17 23:31:00,54.0,45.0,29.84,East,83,4.0,-999.0,71,-99.99,,,-99.99,,2013-05-18 05:31:00,
2013-05-17 23:41:00,54.0,45.0,29.84,East,83,4.0,-999.0,71,-99.99,,,-99.99,,2013-05-18 05:41:00,
2013-05-17 23:52:00,54.0,44.0,29.84,ESE,117,5.0,-999.0,70,-99.99,,,-99.99,,2013-05-18 05:52:00,